createdAt,value
2024-02-24T00:02:01.377Z,19.83
2024-02-24T00:04:31.283Z,24.88
2024-02-24T00:07:00.470Z,26.17
2024-02-24T00:09:30.099Z,21.45
2024-02-24T00:11:59.761Z,22.40
2024-02-24T00:14:29.399Z,19.00
2024-02-24T00:16:59.134Z,20.95
2024-02-24T00:19:28.454Z,29.35
2024-02-24T00:21:58.006Z,23.92
2024-02-24T00:24:27.432Z,19.23
2024-02-24T00:26:56.587Z,18.05
2024-02-24T00:29:26.136Z,25.25
2024-02-24T00:31:55.424Z,24.33
2024-02-24T00:34:25.046Z,24.05
2024-02-24T00:36:54.487Z,18.50
2024-02-24T00:39:23.732Z,24.73
2024-02-24T00:41:54.815Z,21.67
2024-02-24T00:44:24.474Z,25.27
2024-02-24T00:46:53.780Z,24.33
2024-02-24T00:49:23.663Z,22.23
2024-02-24T00:51:52.948Z,20.17
2024-02-24T00:54:22.554Z,24.83
2024-02-24T00:56:52.058Z,22.05
2024-02-24T00:59:21.656Z,32.60
2024-02-24T01:01:50.997Z,26.02
2024-02-24T01:04:24.400Z,36.45
2024-02-24T01:06:55.324Z,28.40
2024-02-24T01:09:25.503Z,28.77
2024-02-24T01:11:55.122Z,24.90
2024-02-24T01:14:24.598Z,20.55
2024-02-24T01:16:54.104Z,25.35
2024-02-24T01:19:23.528Z,23.63
2024-02-24T01:21:55.226Z,31.92
2024-02-24T01:24:25.232Z,34.70
2024-02-24T01:26:54.762Z,30.02
2024-02-24T01:29:24.118Z,22.98
2024-02-24T01:31:53.542Z,26.23
2024-02-24T01:34:22.920Z,27.40
2024-02-24T01:36:52.365Z,31.95
2024-02-24T01:39:21.669Z,28.20
2024-02-24T01:41:51.174Z,26.42
2024-02-24T01:44:20.777Z,32.40
2024-02-24T01:46:50.646Z,28.52
2024-02-24T01:49:20.058Z,31.83
2024-02-24T01:51:49.548Z,35.10
2024-02-24T01:54:18.995Z,29.50
2024-02-24T01:56:48.951Z,33.35
2024-02-24T01:59:18.918Z,28.55
2024-02-24T02:01:48.518Z,39.17
2024-02-24T02:04:17.747Z,36.45
2024-02-24T02:06:47.643Z,37.05
2024-02-24T02:09:17.029Z,38.63
2024-02-24T02:11:56.086Z,38.67
2024-02-24T02:16:59.196Z,32.00
2024-02-24T02:19:28.672Z,31.85
2024-02-24T02:22:01.598Z,35.47
2024-02-24T02:24:30.899Z,31.95
2024-02-24T02:27:00.669Z,36.13
2024-02-24T02:29:30.186Z,31.45
2024-02-24T02:32:00.306Z,38.67
2024-02-24T02:34:30.043Z,55.55
2024-02-24T02:36:59.562Z,34.72
2024-02-24T02:39:28.930Z,46.40
2024-02-24T02:41:58.418Z,76.43
2024-02-24T02:44:27.821Z,42.65
2024-02-24T02:46:57.313Z,29.60
2024-02-24T02:49:26.950Z,38.10
2024-02-24T02:51:56.432Z,30.55
2024-02-24T02:54:25.640Z,26.88
2024-02-24T02:56:55.309Z,26.15
2024-02-24T02:59:24.565Z,27.33
2024-02-24T03:01:54.367Z,26.80
2024-02-24T03:04:23.750Z,40.13
2024-02-24T03:06:53.161Z,32.60
2024-02-24T03:09:22.361Z,26.95
2024-02-24T03:11:51.967Z,35.40
2024-02-24T03:14:22.341Z,34.63
2024-02-24T03:16:51.993Z,28.63
2024-02-24T03:19:21.233Z,32.97
2024-02-24T03:21:51.102Z,30.98
2024-02-24T03:24:20.662Z,26.42
2024-02-24T03:26:49.921Z,22.70
2024-02-24T03:29:19.527Z,30.17
2024-02-24T03:31:48.982Z,30.02
2024-02-24T03:34:18.304Z,22.08
2024-02-24T03:36:47.480Z,17.98
2024-02-24T03:39:16.742Z,36.05
2024-02-24T03:41:46.306Z,26.40
2024-02-24T03:44:15.562Z,38.42
2024-02-24T03:46:45.129Z,35.67
2024-02-24T03:49:14.927Z,34.85
2024-02-24T03:51:44.369Z,30.65
2024-02-24T03:54:13.850Z,33.38
2024-02-24T03:56:43.571Z,37.75
2024-02-24T03:59:12.801Z,25.85
2024-02-24T04:01:43.392Z,24.65
2024-02-24T04:04:12.896Z,30.23
2024-02-24T04:06:48.415Z,30.75
2024-02-24T04:09:17.912Z,31.80
2024-02-24T04:11:47.720Z,27.52
2024-02-24T04:14:17.180Z,26.70
2024-02-24T04:16:46.814Z,28.17
2024-02-24T04:19:16.526Z,32.45
2024-02-24T04:21:45.775Z,29.05
2024-02-24T04:24:15.280Z,26.35
2024-02-24T04:26:44.667Z,26.70
2024-02-24T04:29:14.121Z,31.50
2024-02-24T04:31:43.377Z,30.10
2024-02-24T04:34:12.862Z,30.13
2024-02-24T04:36:43.751Z,26.70
2024-02-24T04:39:13.283Z,26.60
2024-02-24T04:41:43.192Z,30.92
2024-02-24T04:44:12.662Z,25.20
2024-02-24T04:46:42.922Z,20.58
2024-02-24T04:49:12.553Z,29.63
2024-02-24T04:51:41.855Z,22.58
2024-02-24T04:54:11.291Z,21.52
2024-02-24T04:56:40.568Z,22.55
2024-02-24T04:59:10.249Z,19.40
2024-02-24T05:01:39.486Z,22.13
2024-02-24T05:04:08.922Z,19.88
2024-02-24T05:06:38.512Z,29.88
2024-02-24T05:09:10.838Z,30.42
2024-02-24T05:11:41.591Z,30.13
2024-02-24T05:14:11.238Z,26.13
2024-02-24T05:16:43.966Z,23.85
2024-02-24T05:19:13.797Z,20.75
2024-02-24T05:21:43.271Z,22.10
2024-02-24T05:24:12.556Z,18.15
2024-02-24T05:26:42.155Z,27.40
2024-02-24T05:29:11.837Z,25.45
2024-02-24T05:31:41.313Z,20.40
2024-02-24T05:34:10.824Z,27.88
2024-02-24T05:36:40.358Z,23.23
2024-02-24T05:39:10.291Z,24.73
2024-02-24T05:41:39.882Z,27.45
2024-02-24T05:44:09.702Z,29.92
2024-02-24T05:46:38.944Z,25.27
2024-02-24T05:49:08.470Z,24.38
2024-02-24T05:51:38.217Z,18.80
2024-02-24T05:54:07.937Z,23.38
2024-02-24T05:56:37.791Z,13.38
2024-02-24T05:59:07.482Z,18.92
2024-02-24T06:01:36.985Z,21.88
2024-02-24T06:04:06.577Z,19.67
2024-02-24T06:06:36.136Z,22.88
2024-02-24T06:09:06.161Z,20.38
2024-02-24T06:11:36.474Z,18.95
2024-02-24T06:14:06.535Z,19.00
2024-02-24T06:16:36.041Z,20.33
2024-02-24T06:19:05.784Z,22.77
2024-02-24T06:21:35.408Z,19.27
2024-02-24T06:24:05.734Z,16.10
2024-02-24T06:26:35.853Z,21.02
2024-02-24T06:29:05.469Z,15.13
2024-02-24T06:31:34.829Z,16.02
2024-02-24T06:34:08.209Z,17.95
2024-02-24T06:36:39.118Z,14.38
2024-02-24T06:39:09.709Z,18.40
2024-02-24T06:41:39.322Z,17.90
2024-02-24T06:44:08.873Z,20.92
2024-02-24T06:46:38.389Z,17.58
2024-02-24T06:49:08.232Z,11.77
2024-02-24T06:51:38.179Z,15.27
2024-02-24T06:54:08.195Z,14.80
2024-02-24T06:56:38.110Z,18.95
2024-02-24T06:59:08.982Z,15.70
2024-02-24T07:01:38.858Z,13.82
2024-02-24T07:04:08.551Z,15.80
2024-02-24T07:06:38.419Z,16.48
2024-02-24T07:09:08.437Z,24.42
2024-02-24T07:11:38.533Z,18.08
2024-02-24T07:14:08.181Z,17.95
2024-02-24T07:16:37.601Z,16.13
2024-02-24T07:19:07.314Z,16.20
2024-02-24T07:21:36.779Z,15.02
2024-02-24T07:24:06.786Z,15.88
2024-02-24T07:26:46.825Z,14.63
2024-02-24T07:29:18.519Z,23.63
2024-02-24T07:31:49.099Z,12.88
2024-02-24T07:34:18.770Z,12.40
2024-02-24T07:36:48.197Z,10.75
2024-02-24T07:39:17.681Z,13.30
2024-02-24T07:41:47.389Z,12.63
2024-02-24T07:44:18.418Z,12.93
2024-02-24T07:46:49.353Z,13.53
2024-02-24T07:49:18.754Z,18.42
2024-02-24T07:51:48.356Z,17.10
2024-02-24T07:54:17.600Z,30.30
2024-02-24T07:56:47.542Z,15.65
2024-02-24T07:59:17.396Z,10.75
2024-02-24T08:01:46.821Z,17.35
2024-02-24T08:04:17.514Z,11.10
2024-02-24T08:06:47.221Z,14.55
2024-02-24T08:09:17.396Z,13.00
2024-02-24T08:11:46.537Z,12.18
2024-02-24T08:14:16.338Z,15.43
2024-02-24T08:16:47.214Z,18.20
2024-02-24T08:19:18.359Z,18.88
2024-02-24T08:21:48.206Z,20.10
2024-02-24T08:24:18.703Z,18.52
2024-02-24T08:26:50.460Z,16.73
2024-02-24T08:29:20.108Z,18.52
2024-02-24T08:31:50.705Z,20.73
2024-02-24T08:34:20.500Z,17.55
2024-02-24T08:36:50.927Z,14.82
2024-02-24T08:39:20.853Z,15.00
2024-02-24T08:41:51.014Z,22.08
2024-02-24T08:44:22.510Z,12.55
2024-02-24T08:46:52.303Z,12.20
2024-02-24T08:49:21.752Z,12.60
2024-02-24T08:51:51.429Z,15.43
2024-02-24T08:54:23.147Z,11.23
2024-02-24T08:56:52.910Z,8.48
2024-02-24T08:59:22.571Z,12.40
2024-02-24T09:01:55.600Z,14.75
2024-02-24T09:06:54.151Z,21.98
2024-02-24T09:09:23.601Z,14.35
2024-02-24T09:11:53.144Z,14.98
2024-02-24T09:14:22.695Z,20.92
2024-02-24T09:16:57.709Z,12.70
2024-02-24T09:19:28.460Z,15.70
2024-02-24T09:21:58.156Z,26.30
2024-02-24T09:24:27.455Z,17.30
2024-02-24T09:26:57.020Z,18.92
2024-02-24T09:29:26.596Z,16.02
2024-02-24T09:31:55.986Z,11.68
2024-02-24T09:34:25.835Z,19.80
2024-02-24T09:36:57.320Z,18.40
2024-02-24T09:39:27.182Z,16.60
2024-02-24T09:42:02.045Z,16.10
2024-02-24T09:44:34.980Z,19.73
2024-02-24T09:47:06.195Z,17.58
2024-02-24T09:49:36.385Z,21.67
2024-02-24T09:52:07.321Z,19.40
2024-02-24T09:54:39.032Z,18.00
2024-02-24T09:57:15.360Z,18.02
2024-02-24T09:59:48.224Z,18.02
2024-02-24T10:02:21.542Z,22.17
2024-02-24T10:04:57.767Z,24.75
2024-02-24T10:07:28.411Z,17.67
2024-02-24T10:09:59.084Z,23.80
2024-02-24T10:12:35.014Z,15.93
2024-02-24T10:15:05.297Z,17.65
2024-02-24T10:17:35.232Z,21.02
2024-02-24T10:20:05.422Z,18.65
2024-02-24T10:22:35.139Z,24.60
2024-02-24T10:25:05.051Z,23.13
2024-02-24T10:27:35.946Z,26.95
2024-02-24T10:30:07.309Z,21.55
2024-02-24T10:32:38.332Z,19.30
2024-02-24T10:35:08.933Z,23.05
2024-02-24T10:37:56.137Z,23.90
2024-02-24T10:40:28.789Z,23.90
2024-02-24T10:43:01.285Z,24.88
2024-02-24T10:45:31.470Z,23.15
2024-02-24T10:48:02.070Z,19.60
2024-02-24T10:50:32.033Z,19.25
2024-02-24T10:53:03.560Z,21.40
2024-02-24T10:55:37.796Z,24.13
2024-02-24T10:58:07.747Z,20.40
2024-02-24T11:00:38.133Z,32.78
2024-02-24T11:03:10.704Z,22.15
2024-02-24T11:05:40.523Z,21.63
2024-02-24T11:08:37.477Z,24.88
2024-02-24T11:11:10.179Z,24.10
2024-02-24T11:13:55.660Z,19.60
2024-02-24T11:19:14.885Z,23.55
2024-02-24T11:22:05.284Z,23.65
2024-02-24T11:24:37.729Z,26.13
2024-02-24T11:27:08.509Z,19.63
2024-02-24T11:29:39.570Z,21.35
2024-02-24T11:32:18.920Z,20.83
2024-02-24T11:34:49.696Z,22.00
2024-02-24T11:37:22.653Z,22.70
2024-02-24T11:39:52.949Z,23.52
2024-02-24T11:42:25.931Z,18.08
2024-02-24T11:44:58.225Z,21.02
2024-02-24T11:47:30.922Z,20.60
2024-02-24T11:50:00.765Z,23.90
2024-02-24T11:52:30.431Z,19.42
2024-02-24T11:55:00.745Z,22.42
2024-02-24T11:57:30.528Z,15.30
2024-02-24T12:00:00.859Z,20.02
2024-02-24T12:02:30.744Z,20.63
2024-02-24T12:05:19.195Z,14.45
2024-02-24T12:07:49.253Z,16.98
2024-02-24T12:10:19.860Z,22.67
2024-02-24T12:12:50.669Z,31.23
2024-02-24T12:15:20.596Z,24.20
2024-02-24T12:17:51.709Z,22.45
2024-02-24T12:20:28.027Z,16.42
2024-02-24T12:22:59.878Z,16.17
2024-02-24T12:25:29.700Z,20.42
2024-02-24T12:28:00.572Z,20.77
2024-02-24T12:30:38.210Z,22.83
2024-02-24T12:33:09.786Z,19.35
2024-02-24T12:35:40.929Z,17.17
2024-02-24T12:38:20.580Z,20.40
2024-02-24T12:40:50.621Z,20.48
2024-02-24T12:43:20.235Z,20.52
2024-02-24T12:45:52.071Z,21.80
2024-02-24T12:48:22.530Z,21.88
2024-02-24T12:50:52.472Z,26.40
2024-02-24T12:53:23.894Z,24.05
2024-02-24T12:55:54.025Z,18.38
2024-02-24T12:58:25.632Z,19.58
2024-02-24T13:00:55.668Z,20.70
2024-02-24T13:03:25.254Z,20.52
2024-02-24T13:05:55.025Z,24.33
2024-02-24T13:08:26.003Z,21.40
2024-02-24T13:10:56.028Z,20.52
2024-02-24T13:13:26.520Z,18.27
2024-02-24T13:15:56.940Z,20.73
2024-02-24T13:18:27.065Z,23.45
2024-02-24T13:20:57.478Z,20.63
2024-02-24T13:23:27.944Z,30.58
2024-02-24T13:25:57.831Z,25.95
2024-02-24T13:28:27.854Z,30.05
2024-02-24T13:30:57.530Z,22.85
2024-02-24T13:33:27.967Z,27.30
2024-02-24T13:35:59.629Z,20.23
2024-02-24T13:38:29.506Z,21.50
2024-02-24T13:40:58.841Z,24.25
2024-02-24T13:43:28.669Z,22.27
2024-02-24T13:46:00.260Z,24.15
2024-02-24T13:48:29.979Z,30.77
2024-02-24T13:50:59.842Z,29.27
2024-02-24T13:53:38.242Z,27.48
2024-02-24T13:56:11.501Z,35.80
2024-02-24T13:58:42.602Z,30.35
2024-02-24T14:01:14.024Z,38.75
2024-02-24T14:03:44.525Z,31.02
2024-02-24T14:06:18.268Z,33.88
2024-02-24T14:08:53.047Z,31.55
2024-02-24T14:11:22.876Z,34.28
2024-02-24T14:13:55.721Z,30.30
2024-02-24T14:16:28.383Z,30.95
2024-02-24T14:18:59.250Z,29.63
2024-02-24T14:21:31.591Z,37.08
2024-02-24T14:24:02.084Z,38.63
2024-02-24T14:26:32.732Z,28.80
2024-02-24T14:29:03.753Z,35.30
2024-02-24T14:31:34.741Z,29.77
2024-02-24T14:34:06.116Z,35.13
2024-02-24T14:36:37.609Z,31.77
2024-02-24T14:39:10.669Z,31.45
2024-02-24T14:41:40.900Z,27.27
2024-02-24T14:44:10.813Z,35.92
2024-02-24T14:47:01.436Z,38.03
2024-02-24T14:49:31.314Z,38.10
2024-02-24T14:52:04.286Z,34.40
2024-02-24T14:54:36.742Z,39.90
2024-02-24T14:59:51.156Z,41.83
2024-02-24T15:02:35.538Z,40.42
2024-02-24T15:05:17.722Z,38.80
2024-02-24T15:07:49.129Z,37.88
2024-02-24T15:10:19.054Z,39.78
2024-02-24T15:12:54.089Z,41.72
2024-02-24T15:15:24.007Z,39.42
2024-02-24T15:17:58.068Z,41.42
2024-02-24T15:20:28.879Z,40.47
2024-02-24T15:22:59.502Z,38.22
2024-02-24T15:25:33.429Z,35.47
2024-02-24T15:28:06.771Z,37.92
2024-02-24T15:30:37.193Z,50.95
2024-02-24T15:33:07.753Z,43.45
2024-02-24T15:35:38.520Z,31.95
2024-02-24T15:38:11.645Z,40.75
2024-02-24T15:40:42.531Z,34.63
2024-02-24T15:43:12.785Z,38.30
2024-02-24T15:45:42.708Z,35.38
2024-02-24T15:48:12.920Z,31.45
2024-02-24T15:50:44.637Z,34.33
2024-02-24T15:53:15.633Z,42.25
2024-02-24T15:55:48.069Z,35.53
2024-02-24T15:58:18.040Z,36.90
2024-02-24T16:00:48.893Z,41.00
2024-02-24T16:03:23.002Z,34.53
2024-02-24T16:05:54.534Z,34.88
2024-02-24T16:08:25.762Z,45.40
2024-02-24T16:10:56.153Z,44.70
2024-02-24T16:13:26.207Z,42.65
2024-02-24T16:15:57.158Z,38.60
2024-02-24T16:18:27.156Z,44.95
2024-02-24T16:20:57.396Z,38.92
2024-02-24T16:23:28.628Z,50.08
2024-02-24T16:25:59.516Z,45.88
2024-02-24T16:28:32.688Z,41.63
2024-02-24T16:31:03.046Z,46.17
2024-02-24T16:33:34.895Z,42.17
2024-02-24T16:36:05.095Z,52.47
2024-02-24T16:38:38.790Z,53.78
2024-02-24T16:41:09.946Z,53.45
2024-02-24T16:43:43.130Z,46.15
2024-02-24T16:46:13.845Z,55.63
2024-02-24T16:48:43.700Z,46.50
2024-02-24T16:51:13.688Z,45.17
2024-02-24T16:53:44.610Z,40.95
2024-02-24T16:56:14.701Z,60.50
2024-02-24T16:58:44.477Z,44.78
2024-02-24T17:01:14.230Z,48.45
2024-02-24T17:03:46.965Z,46.25
2024-02-24T17:06:17.728Z,56.13
2024-02-24T17:08:47.882Z,60.28
2024-02-24T17:11:22.457Z,57.35
2024-02-24T17:13:53.660Z,59.85
2024-02-24T17:16:23.883Z,84.32
2024-02-24T17:18:55.371Z,105.88
2024-02-24T17:21:28.668Z,80.97
2024-02-24T17:24:00.676Z,64.85
2024-02-24T17:26:31.011Z,78.90
2024-02-24T17:29:01.577Z,67.55
2024-02-24T17:31:32.313Z,70.05
2024-02-24T17:34:03.169Z,89.60
2024-02-24T17:36:40.862Z,123.80
2024-02-24T17:39:13.419Z,95.85
2024-02-24T17:41:46.498Z,78.87
2024-02-24T17:44:17.191Z,75.15
2024-02-24T17:46:47.938Z,68.35
2024-02-24T17:49:18.913Z,78.22
2024-02-24T17:51:48.743Z,91.40
2024-02-24T17:54:18.790Z,98.93
2024-02-24T17:56:48.641Z,103.03
2024-02-24T17:59:20.488Z,96.93
2024-02-24T18:01:51.731Z,108.10
2024-02-24T18:04:22.950Z,125.53
2024-02-24T18:06:54.657Z,122.18
2024-02-24T18:09:29.359Z,336.33
2024-02-24T18:12:00.186Z,344.00
2024-02-24T18:14:31.928Z,206.05
2024-02-24T18:17:02.869Z,128.65
2024-02-24T18:19:44.300Z,75.75
2024-02-24T18:22:16.101Z,71.90
2024-02-24T18:24:47.792Z,75.38
2024-02-24T18:27:20.525Z,86.97
2024-02-24T18:29:52.045Z,107.60
2024-02-24T18:32:32.566Z,103.40
2024-02-24T18:35:13.366Z,113.15
2024-02-24T18:37:48.346Z,117.05
2024-02-24T18:40:22.918Z,115.72
2024-02-24T18:42:53.923Z,116.03
2024-02-24T18:45:28.656Z,113.28
2024-02-24T18:48:04.293Z,111.70
2024-02-24T18:50:35.150Z,121.78
2024-02-24T18:53:06.898Z,107.82
2024-02-24T18:55:40.341Z,117.35
2024-02-24T18:58:12.426Z,112.72
2024-02-24T19:00:43.310Z,104.70
2024-02-24T19:03:14.614Z,101.93
2024-02-24T19:05:45.234Z,99.50
2024-02-24T19:08:15.269Z,107.07
2024-02-24T19:10:45.714Z,94.20
2024-02-24T19:13:16.010Z,101.47
2024-02-24T19:15:46.458Z,88.53
2024-02-24T19:18:17.399Z,81.68
2024-02-24T19:20:48.717Z,80.28
2024-02-24T19:23:27.089Z,80.72
2024-02-24T19:26:00.173Z,56.45
2024-02-24T19:28:30.074Z,58.47
2024-02-24T19:31:01.015Z,45.75
2024-02-24T19:33:34.271Z,44.28
2024-02-24T19:36:05.329Z,37.28
2024-02-24T19:38:35.090Z,49.35
2024-02-24T19:41:04.678Z,47.60
2024-02-24T19:43:34.351Z,42.30
2024-02-24T19:46:04.273Z,53.70
2024-02-24T19:48:34.281Z,39.47
2024-02-24T19:51:06.718Z,47.42
2024-02-24T19:53:37.085Z,34.90
2024-02-24T19:56:07.300Z,39.55
2024-02-24T19:58:42.204Z,38.75
2024-02-24T20:01:17.506Z,38.38
2024-02-24T20:03:46.918Z,35.40
2024-02-24T20:06:16.547Z,35.35
2024-02-24T20:08:45.828Z,32.35
2024-02-24T20:11:15.589Z,38.03
2024-02-24T20:13:44.924Z,30.63
2024-02-24T20:16:14.842Z,30.02
2024-02-24T20:18:45.598Z,30.77
2024-02-24T20:21:16.806Z,23.75
2024-02-24T20:23:46.351Z,26.05
2024-02-24T20:26:15.412Z,31.73
2024-02-24T20:28:45.597Z,29.17
2024-02-24T20:31:15.842Z,33.42
2024-02-24T20:33:53.574Z,28.02
2024-02-24T20:36:29.857Z,25.77
2024-02-24T20:39:00.700Z,27.20
2024-02-24T20:41:31.352Z,20.83
2024-02-24T20:44:02.340Z,21.83
2024-02-24T20:46:31.652Z,22.77
2024-02-24T20:49:00.829Z,22.90
2024-02-24T20:51:30.266Z,24.40
2024-02-24T20:53:59.475Z,22.30
2024-02-24T20:56:29.923Z,23.65
2024-02-24T20:58:59.507Z,25.83
2024-02-24T21:01:31.609Z,20.25
2024-02-24T21:04:01.261Z,22.07
2024-02-24T21:06:30.480Z,22.25
2024-02-24T21:08:59.912Z,20.35
2024-02-24T21:11:29.748Z,25.42
2024-02-24T21:14:00.003Z,24.27
2024-02-24T21:16:29.663Z,22.98
2024-02-24T21:18:59.306Z,27.45
2024-02-24T21:21:28.697Z,17.80
2024-02-24T21:23:58.543Z,19.55
2024-02-24T21:26:27.700Z,33.50
2024-02-24T21:28:57.622Z,21.17
2024-02-24T21:31:27.310Z,22.98
2024-02-24T21:33:57.249Z,18.92
2024-02-24T21:36:31.040Z,22.10
2024-02-24T21:39:02.812Z,20.95
2024-02-24T21:41:38.452Z,22.30
2024-02-24T21:44:08.453Z,37.95
2024-02-24T21:46:37.725Z,23.63
2024-02-24T21:49:08.629Z,19.83
2024-02-24T21:51:38.389Z,24.92
2024-02-24T21:54:11.672Z,21.15
2024-02-24T21:56:41.227Z,21.08
2024-02-24T21:59:10.485Z,21.85
2024-02-24T22:01:39.799Z,22.15
2024-02-24T22:04:09.544Z,25.48
2024-02-24T22:06:39.663Z,21.40
2024-02-24T22:09:10.020Z,20.50
2024-02-24T22:11:40.836Z,19.88
2024-02-24T22:14:10.638Z,21.45
2024-02-24T22:16:40.132Z,21.75
2024-02-24T22:19:10.042Z,20.40
2024-02-24T22:21:39.697Z,20.08
2024-02-24T22:24:09.035Z,18.00
2024-02-24T22:26:39.309Z,21.40
2024-02-24T22:29:09.474Z,22.52
2024-02-24T22:31:38.790Z,20.90
2024-02-24T22:34:08.670Z,18.73
2024-02-24T22:36:38.299Z,20.80
2024-02-24T22:39:08.084Z,24.15
2024-02-24T22:41:37.779Z,18.98
2024-02-24T22:44:09.646Z,19.67
2024-02-24T22:46:41.042Z,20.20
2024-02-24T22:49:11.242Z,15.90
2024-02-24T22:51:40.939Z,16.98
2024-02-24T22:54:10.585Z,17.83
2024-02-24T22:56:40.865Z,19.60
2024-02-24T22:59:12.450Z,18.67
2024-02-24T23:01:43.485Z,20.00
2024-02-24T23:04:13.140Z,19.85
2024-02-24T23:06:44.642Z,19.40
2024-02-24T23:09:14.645Z,22.95
2024-02-24T23:11:44.090Z,23.10
2024-02-24T23:14:13.821Z,18.67
2024-02-24T23:16:43.426Z,17.95
2024-02-24T23:19:13.209Z,18.77
2024-02-24T23:21:43.881Z,25.05
2024-02-24T23:24:13.695Z,25.00
2024-02-24T23:26:43.129Z,28.80
2024-02-24T23:29:13.001Z,21.88
2024-02-24T23:31:42.533Z,21.48
2024-02-24T23:34:12.167Z,21.67
2024-02-24T23:36:42.513Z,23.80
2024-02-24T23:39:12.661Z,21.77
2024-02-24T23:41:42.544Z,22.13
2024-02-24T23:44:12.104Z,29.25
2024-02-24T23:46:41.824Z,23.20
2024-02-24T23:49:11.415Z,24.58
2024-02-24T23:51:41.190Z,24.50
2024-02-24T23:54:10.763Z,23.38
2024-02-24T23:56:40.624Z,21.45
2024-02-24T23:59:10.544Z,21.55
